Zeus — V2OR — position and weather

sailwx.info

Track history (hours):
 
Tides and Currents Weather Stations Pressure Air Temp Water Temp Dewpoint Dewpoint Depression Visibility Wind Speed Wind Dir Waves Ship Positions

Zeus

Last reported at 2014-Oct-31 20:31 UTC. Time now 2014-Oct-31 20:55 UTC.
Position N 52°44' E 003°05'.

Length 90 m; draft 4.5 m.

Type: Cargo ship. MMSI: 304011025.

Date/timePositionNaut miles runAvg speedWind from/ knotsBaromVisibWave heightAir tempDewpointWater temp
2014-Oct-31 20:31N 52°44' E 003°05'8 7.9
2014-Oct-31 19:33N 52°51' E 003°10'8 8.2
2014-Oct-31 18:33N 52°58' E 003°17'9 8.9
2014-Oct-31 17:33N 53°07' E 003°21'80 8.8
2014-Oct-31 08:33N 54°12' E 004°38'9 9.4
2014-Oct-31 07:33N 54°17' E 004°51'123 8.7
2014-Oct-30 17:27N 55°19' E 007°56'9 9.7
2014-Oct-30 16:33N 55°24' E 008°09'9 8.9
2014-Oct-30 15:33N 55°29' E 008°22'4 3.0
2014-Oct-30 14:22N 55°27' E 008°27'0 0.0
2014-Oct-30 13:25N 55°27' E 008°27'0 0.0
2014-Oct-30 12:25N 55°27' E 008°27'0 0.0
2014-Oct-30 11:10N 55°27' E 008°27'0 0.0
2014-Oct-30 10:28N 55°27' E 008°27'0 0.0
2014-Oct-30 09:28N 55°27' E 008°27'0 0.0
2014-Oct-30 08:28N 55°27' E 008°27'0 0.0
2014-Oct-30 07:28N 55°27' E 008°27'0 0.0
2014-Oct-30 06:31N 55°27' E 008°27'0 0.0
2014-Oct-30 05:16N 55°27' E 008°27'0 0.0
2014-Oct-30 04:31N 55°27' E 008°27'0 0.0
2014-Oct-30 03:22N 55°27' E 008°27'0 0.0
2014-Oct-30 02:19N 55°27' E 008°27'0 0.0
2014-Oct-30 01:22N 55°27' E 008°27'0 0.0
2014-Oct-30 00:22N 55°27' E 008°27'0 0.0
2014-Oct-29 23:22N 55°27' E 008°27'0 0.0
2014-Oct-29 22:28N 55°27' E 008°27'0 0.0
2014-Oct-29 21:28N 55°27' E 008°27'0 0.0
2014-Oct-29 20:28N 55°27' E 008°27'0 0.0
2014-Oct-29 19:28N 55°27' E 008°27'0 0.0
2014-Oct-29 17:31N 55°27' E 008°27'0 0.0
2014-Oct-29 16:28N 55°27' E 008°27'0 0.0
2014-Oct-29 15:04N 55°27' E 008°27'0 0.0
2014-Oct-29 14:31N 55°27' E 008°27'0 0.0
2014-Oct-29 13:22N 55°27' E 008°27'0 0.0
2014-Oct-29 12:22N 55°27' E 008°27'0 0.0
2014-Oct-29 11:22N 55°27' E 008°27'0 0.0
2014-Oct-29 10:25N 55°27' E 008°27'0 0.3
2014-Oct-29 09:33N 55°27' E 008°27'6 6.0
2014-Oct-29 08:33N 55°27' E 008°16'9 9.1
2014-Oct-29 07:34N 55°20' E 008°04'10 9.5
2014-Oct-29 06:33N 55°14' E 007°52'10 9.9
2014-Oct-29 05:33N 55°08' E 007°38'1010.0
2014-Oct-29 04:33N 55°01' E 007°26'1110.6
2014-Oct-29 03:33N 54°50' E 007°23'10 9.4
2014-Oct-29 02:27N 54°40' E 007°22'9 9.8
2014-Oct-29 01:34N 54°31' E 007°24'9 9.5
2014-Oct-29 00:33N 54°22' E 007°24'8 8.2
2014-Oct-28 23:33N 54°14' E 007°27'8 7.9
2014-Oct-28 22:33N 54°07' E 007°34'8 8.3
2014-Oct-28 21:33N 53°59' E 007°40'9 8.5
2014-Oct-28 20:31N 53°53' E 007°50'1010.3
2014-Oct-28 19:33N 53°50' E 008°06'1312.6
2014-Oct-28 18:33N 53°41' E 008°22'1211.9
2014-Oct-28 17:33N 53°31' E 008°33'1111.4
2014-Oct-28 16:33N 53°20' E 008°30'11 7.6
2014-Oct-28 15:06N 53°10' E 008°37'4 7.2
2014-Oct-28 14:33N 53°07' E 008°42'3 2.6
2014-Oct-28 13:34N 53°06' E 008°46'0 0.0
2014-Oct-28 12:33N 53°06' E 008°46'0 0.0
2014-Oct-28 11:33N 53°06' E 008°46'0 0.0
2014-Oct-28 10:33N 53°06' E 008°46'0 0.0
2014-Oct-28 09:33N 53°06' E 008°46'0 0.0
2014-Oct-28 08:33N 53°06' E 008°46'0 0.0
2014-Oct-28 07:33N 53°06' E 008°46'0 0.0
2014-Oct-28 06:33N 53°06' E 008°46'0 0.0
2014-Oct-28 05:33N 53°06' E 008°46'0 0.0
2014-Oct-28 04:33N 53°06' E 008°46'0 0.0
2014-Oct-28 03:33N 53°06' E 008°46'0 0.0
2014-Oct-28 02:33N 53°06' E 008°46'0 0.0
2014-Oct-28 01:33N 53°06' E 008°46'0 0.0
2014-Oct-28 00:33N 53°06' E 008°46'0 0.0
2014-Oct-27 23:33N 53°06' E 008°46'0 0.0
2014-Oct-27 22:33N 53°06' E 008°46'0 0.0
2014-Oct-27 21:33N 53°06' E 008°46'0 0.0
2014-Oct-27 20:33N 53°06' E 008°46'0 0.0
2014-Oct-27 19:33N 53°06' E 008°46'0 0.0
2014-Oct-27 18:33N 53°06' E 008°46'0 0.0
2014-Oct-27 17:33N 53°06' E 008°46'0 0.0
2014-Oct-27 16:33N 53°06' E 008°46'0 0.0
2014-Oct-27 15:33N 53°06' E 008°46'0 0.0
2014-Oct-27 14:33N 53°06' E 008°46'0 0.0
2014-Oct-27 13:33N 53°06' E 008°46'0 0.0
2014-Oct-27 12:33N 53°06' E 008°46'0 0.0
2014-Oct-27 11:33N 53°06' E 008°46'0 0.0
2014-Oct-27 10:33N 53°06' E 008°46'0 0.0
2014-Oct-27 09:33N 53°06' E 008°46'0 0.0
2014-Oct-27 08:33N 53°06' E 008°46'0 0.0
2014-Oct-27 07:33N 53°06' E 008°46'0 0.0
2014-Oct-27 06:33N 53°06' E 008°46'0 0.0
2014-Oct-27 05:33N 53°06' E 008°46'0 0.0
2014-Oct-27 04:33N 53°06' E 008°46'0 0.0
2014-Oct-27 03:33N 53°06' E 008°46'0 0.0
2014-Oct-27 02:33N 53°06' E 008°46'0 0.0
2014-Oct-27 01:33N 53°06' E 008°46'0 0.0
2014-Oct-27 00:33N 53°06' E 008°46'0 0.0
2014-Oct-26 23:33N 53°06' E 008°46'0 0.0
2014-Oct-26 22:33N 53°06' E 008°46'0 0.0
2014-Oct-26 21:33N 53°06' E 008°46'0 0.0
2014-Oct-26 20:33N 53°06' E 008°46'0 0.0
2014-Oct-26 19:33N 53°06' E 008°46'0 0.0
2014-Oct-26 18:33N 53°06' E 008°46'0 0.0
2014-Oct-26 17:33N 53°06' E 008°46'0 0.0
2014-Oct-26 16:33N 53°06' E 008°46'0 0.0
2014-Oct-26 15:33N 53°06' E 008°46'0 0.0
2014-Oct-26 14:33N 53°06' E 008°46'0 0.0
2014-Oct-26 13:33N 53°06' E 008°46'0 0.1
2014-Oct-26 12:33N 53°06' E 008°46'11 7.6
2014-Oct-26 11:11N 53°12' E 008°31'710.6
2014-Oct-26 10:33N 53°18' E 008°29'1110.9
2014-Oct-26 09:33N 53°29' E 008°30'8 7.7
2014-Oct-26 08:33N 53°37' E 008°29'9 8.7
2014-Oct-26 07:33N 53°43' E 008°18'8 8.0
2014-Oct-26 06:33N 53°48' E 008°08'8 8.0
2014-Oct-26 05:33N 53°51' E 007°56'7 7.3
2014-Oct-26 04:33N 53°53' E 007°43'61 6.1
2014-Oct-25 18:32N 53°40' E 006°02'7 6.7
2014-Oct-25 17:33N 53°38' E 005°52'6 6.1
2014-Oct-25 16:33N 53°36' E 005°42'5 5.4
2014-Oct-25 15:33N 53°35' E 005°33'5 4.9
2014-Oct-25 14:33N 53°33' E 005°26'5 4.7
2014-Oct-25 13:33N 53°32' E 005°18'5 4.9
2014-Oct-25 12:33N 53°30' E 005°10'5 5.3
2014-Oct-25 11:33N 53°28' E 005°02'6 5.6
2014-Oct-25 10:33N 53°26' E 004°53'6 6.0
2014-Oct-25 09:30N 53°24' E 004°43'19 6.4
2014-Oct-25 06:33N 53°07' E 004°30'5 4.7
2014-Oct-25 05:33N 53°03' E 004°25'5 4.9
2014-Oct-25 04:33N 52°59' E 004°21'8 8.1
2014-Oct-25 03:33N 52°52' E 004°16'101 7.2
2014-Oct-24 13:32N 51°36' E 002°25'8 7.9
2014-Oct-24 12:33N 51°30' E 002°17'8 8.1
2014-Oct-24 11:33N 51°23' E 002°11'8 7.9
2014-Oct-24 10:33N 51°16' E 002°06'8 7.9
2014-Oct-24 09:33N 51°11' E 001°56'7 7.0
2014-Oct-24 08:33N 51°07' E 001°47'7 6.7
2014-Oct-24 07:34N 51°02' E 001°40'7 6.5
2014-Oct-24 06:33N 50°57' E 001°33'201 6.7
2014-Oct-23 00:33N 49°38' W 003°16'  
Track history (hours):
 
Tides and Currents Weather Stations Pressure Air Temp Water Temp Dewpoint Dewpoint Depression Visibility Wind Speed Wind Dir Waves Ship Positions

Zeus

Last reported at 2014-Oct-31 20:31 UTC. Time now 2014-Oct-31 20:55 UTC.
Position N 52°44' E 003°05'.

Length 90 m; draft 4.5 m.

Type: Cargo ship. MMSI: 304011025.

Date/timePositionNaut miles runAvg speedWind from/ knotsBaromVisibWave heightAir tempDewpointWater temp
2014-Oct-31 20:31N 52°44' E 003°05'8 7.9
2014-Oct-31 19:33N 52°51' E 003°10'8 8.2
2014-Oct-31 18:33N 52°58' E 003°17'9 8.9
2014-Oct-31 17:33N 53°07' E 003°21'80 8.8
2014-Oct-31 08:33N 54°12' E 004°38'9 9.4
2014-Oct-31 07:33N 54°17' E 004°51'123 8.7
2014-Oct-30 17:27N 55°19' E 007°56'9 9.7
2014-Oct-30 16:33N 55°24' E 008°09'9 8.9
2014-Oct-30 15:33N 55°29' E 008°22'4 3.0
2014-Oct-30 14:22N 55°27' E 008°27'0 0.0
2014-Oct-30 13:25N 55°27' E 008°27'0 0.0
2014-Oct-30 12:25N 55°27' E 008°27'0 0.0
2014-Oct-30 11:10N 55°27' E 008°27'0 0.0
2014-Oct-30 10:28N 55°27' E 008°27'0 0.0
2014-Oct-30 09:28N 55°27' E 008°27'0 0.0
2014-Oct-30 08:28N 55°27' E 008°27'0 0.0
2014-Oct-30 07:28N 55°27' E 008°27'0 0.0
2014-Oct-30 06:31N 55°27' E 008°27'0 0.0
2014-Oct-30 05:16N 55°27' E 008°27'0 0.0
2014-Oct-30 04:31N 55°27' E 008°27'0 0.0
2014-Oct-30 03:22N 55°27' E 008°27'0 0.0
2014-Oct-30 02:19N 55°27' E 008°27'0 0.0
2014-Oct-30 01:22N 55°27' E 008°27'0 0.0
2014-Oct-30 00:22N 55°27' E 008°27'0 0.0
2014-Oct-29 23:22N 55°27' E 008°27'0 0.0
2014-Oct-29 22:28N 55°27' E 008°27'0 0.0
2014-Oct-29 21:28N 55°27' E 008°27'0 0.0
2014-Oct-29 20:28N 55°27' E 008°27'0 0.0
2014-Oct-29 19:28N 55°27' E 008°27'0 0.0
2014-Oct-29 17:31N 55°27' E 008°27'0 0.0
2014-Oct-29 16:28N 55°27' E 008°27'0 0.0
2014-Oct-29 15:04N 55°27' E 008°27'0 0.0
2014-Oct-29 14:31N 55°27' E 008°27'0 0.0
2014-Oct-29 13:22N 55°27' E 008°27'0 0.0
2014-Oct-29 12:22N 55°27' E 008°27'0 0.0
2014-Oct-29 11:22N 55°27' E 008°27'0 0.0
2014-Oct-29 10:25N 55°27' E 008°27'0 0.3
2014-Oct-29 09:33N 55°27' E 008°27'6 6.0
2014-Oct-29 08:33N 55°27' E 008°16'9 9.1
2014-Oct-29 07:34N 55°20' E 008°04'10 9.5
2014-Oct-29 06:33N 55°14' E 007°52'10 9.9
2014-Oct-29 05:33N 55°08' E 007°38'1010.0
2014-Oct-29 04:33N 55°01' E 007°26'1110.6
2014-Oct-29 03:33N 54°50' E 007°23'10 9.4
2014-Oct-29 02:27N 54°40' E 007°22'9 9.8
2014-Oct-29 01:34N 54°31' E 007°24'9 9.5
2014-Oct-29 00:33N 54°22' E 007°24'8 8.2
2014-Oct-28 23:33N 54°14' E 007°27'8 7.9
2014-Oct-28 22:33N 54°07' E 007°34'8 8.3
2014-Oct-28 21:33N 53°59' E 007°40'9 8.5
2014-Oct-28 20:31N 53°53' E 007°50'1010.3
2014-Oct-28 19:33N 53°50' E 008°06'1312.6
2014-Oct-28 18:33N 53°41' E 008°22'1211.9
2014-Oct-28 17:33N 53°31' E 008°33'1111.4
2014-Oct-28 16:33N 53°20' E 008°30'11 7.6
2014-Oct-28 15:06N 53°10' E 008°37'4 7.2
2014-Oct-28 14:33N 53°07' E 008°42'3 2.6
2014-Oct-28 13:34N 53°06' E 008°46'0 0.0
2014-Oct-28 12:33N 53°06' E 008°46'0 0.0
2014-Oct-28 11:33N 53°06' E 008°46'0 0.0
2014-Oct-28 10:33N 53°06' E 008°46'0 0.0
2014-Oct-28 09:33N 53°06' E 008°46'0 0.0
2014-Oct-28 08:33N 53°06' E 008°46'0 0.0
2014-Oct-28 07:33N 53°06' E 008°46'0 0.0
2014-Oct-28 06:33N 53°06' E 008°46'0 0.0
2014-Oct-28 05:33N 53°06' E 008°46'0 0.0
2014-Oct-28 04:33N 53°06' E 008°46'0 0.0
2014-Oct-28 03:33N 53°06' E 008°46'0 0.0
2014-Oct-28 02:33N 53°06' E 008°46'0 0.0
2014-Oct-28 01:33N 53°06' E 008°46'0 0.0
2014-Oct-28 00:33N 53°06' E 008°46'0 0.0
2014-Oct-27 23:33N 53°06' E 008°46'0 0.0
2014-Oct-27 22:33N 53°06' E 008°46'0 0.0
2014-Oct-27 21:33N 53°06' E 008°46'0 0.0
2014-Oct-27 20:33N 53°06' E 008°46'0 0.0
2014-Oct-27 19:33N 53°06' E 008°46'0 0.0
2014-Oct-27 18:33N 53°06' E 008°46'0 0.0
2014-Oct-27 17:33N 53°06' E 008°46'0 0.0
2014-Oct-27 16:33N 53°06' E 008°46'0 0.0
2014-Oct-27 15:33N 53°06' E 008°46'0 0.0
2014-Oct-27 14:33N 53°06' E 008°46'0 0.0
2014-Oct-27 13:33N 53°06' E 008°46'0 0.0
2014-Oct-27 12:33N 53°06' E 008°46'0 0.0
2014-Oct-27 11:33N 53°06' E 008°46'0 0.0
2014-Oct-27 10:33N 53°06' E 008°46'0 0.0
2014-Oct-27 09:33N 53°06' E 008°46'0 0.0
2014-Oct-27 08:33N 53°06' E 008°46'0 0.0
2014-Oct-27 07:33N 53°06' E 008°46'0 0.0
2014-Oct-27 06:33N 53°06' E 008°46'0 0.0
2014-Oct-27 05:33N 53°06' E 008°46'0 0.0
2014-Oct-27 04:33N 53°06' E 008°46'0 0.0
2014-Oct-27 03:33N 53°06' E 008°46'0 0.0
2014-Oct-27 02:33N 53°06' E 008°46'0 0.0
2014-Oct-27 01:33N 53°06' E 008°46'0 0.0
2014-Oct-27 00:33N 53°06' E 008°46'0 0.0
2014-Oct-26 23:33N 53°06' E 008°46'0 0.0
2014-Oct-26 22:33N 53°06' E 008°46'0 0.0
2014-Oct-26 21:33N 53°06' E 008°46'0 0.0
2014-Oct-26 20:33N 53°06' E 008°46'0 0.0
2014-Oct-26 19:33N 53°06' E 008°46'0 0.0
2014-Oct-26 18:33N 53°06' E 008°46'0 0.0
2014-Oct-26 17:33N 53°06' E 008°46'0 0.0
2014-Oct-26 16:33N 53°06' E 008°46'0 0.0
2014-Oct-26 15:33N 53°06' E 008°46'0 0.0
2014-Oct-26 14:33N 53°06' E 008°46'0 0.0
2014-Oct-26 13:33N 53°06' E 008°46'0 0.1
2014-Oct-26 12:33N 53°06' E 008°46'11 7.6
2014-Oct-26 11:11N 53°12' E 008°31'710.6
2014-Oct-26 10:33N 53°18' E 008°29'1110.9
2014-Oct-26 09:33N 53°29' E 008°30'8 7.7
2014-Oct-26 08:33N 53°37' E 008°29'9 8.7
2014-Oct-26 07:33N 53°43' E 008°18'8 8.0
2014-Oct-26 06:33N 53°48' E 008°08'8 8.0
2014-Oct-26 05:33N 53°51' E 007°56'7 7.3
2014-Oct-26 04:33N 53°53' E 007°43'61 6.1
2014-Oct-25 18:32N 53°40' E 006°02'7 6.7
2014-Oct-25 17:33N 53°38' E 005°52'6 6.1
2014-Oct-25 16:33N 53°36' E 005°42'5 5.4
2014-Oct-25 15:33N 53°35' E 005°33'5 4.9
2014-Oct-25 14:33N 53°33' E 005°26'5 4.7
2014-Oct-25 13:33N 53°32' E 005°18'5 4.9
2014-Oct-25 12:33N 53°30' E 005°10'5 5.3
2014-Oct-25 11:33N 53°28' E 005°02'6 5.6
2014-Oct-25 10:33N 53°26' E 004°53'6 6.0
2014-Oct-25 09:30N 53°24' E 004°43'19 6.4
2014-Oct-25 06:33N 53°07' E 004°30'5 4.7
2014-Oct-25 05:33N 53°03' E 004°25'5 4.9
2014-Oct-25 04:33N 52°59' E 004°21'8 8.1
2014-Oct-25 03:33N 52°52' E 004°16'101 7.2
2014-Oct-24 13:32N 51°36' E 002°25'8 7.9
2014-Oct-24 12:33N 51°30' E 002°17'8 8.1
2014-Oct-24 11:33N 51°23' E 002°11'8 7.9
2014-Oct-24 10:33N 51°16' E 002°06'8 7.9
2014-Oct-24 09:33N 51°11' E 001°56'7 7.0
2014-Oct-24 08:33N 51°07' E 001°47'7 6.7
2014-Oct-24 07:34N 51°02' E 001°40'7 6.5
2014-Oct-24 06:33N 50°57' E 001°33'201 6.7
2014-Oct-23 00:33N 49°38' W 003°16'  

Dump ship's entire track history